Almyros — 9HA2510 — position and weather

sailwx.info

Track history (hours):
 
Tides and Currents Weather Stations Pressure Air Temp Water Temp Dewpoint Dewpoint Depression Visibility Wind Speed Wind Dir Waves Ship Positions

Almyros

Last reported at 2017-May-29 22:30 UTC. Time now 2017-May-29 22:58 UTC.
Position S 28°52' E 032°13'.

Length 189 m; draft 6.5 m.

Type: Cargo ship. MMSI: 248779000.

Date/timePositionNaut miles runAvg speedWind from/ knotsBaromVisibWave heightAir tempDewpointWater temp
2017-May-29 22:30S 28°52' E 032°13'0 0.0
2017-May-29 22:00S 28°52' E 032°13'0 0.1
2017-May-29 21:30S 28°52' E 032°13'0 0.1
2017-May-29 20:12S 28°52' E 032°13'0 0.1
2017-May-29 19:57S 28°52' E 032°13'0 0.0
2017-May-29 19:30S 28°52' E 032°13'0 0.0
2017-May-29 19:00S 28°52' E 032°13'0 0.0
2017-May-29 18:30S 28°52' E 032°13'0 0.0
2017-May-29 18:00S 28°52' E 032°13'0 0.0
2017-May-29 17:29S 28°52' E 032°13'0 0.0
2017-May-29 16:59S 28°52' E 032°13'0 0.2
2017-May-29 16:29S 28°52' E 032°13'0 0.1
2017-May-29 15:59S 28°52' E 032°13'0 0.0
2017-May-29 15:28S 28°52' E 032°13'0 0.1
2017-May-29 14:58S 28°52' E 032°13'0 0.1
2017-May-29 14:28S 28°52' E 032°13'0 0.0
2017-May-29 13:28S 28°52' E 032°13'0 0.0
2017-May-29 12:58S 28°52' E 032°13'0 0.1
2017-May-29 12:28S 28°52' E 032°13'0 0.0
2017-May-29 11:58S 28°52' E 032°13'0 0.1
2017-May-29 11:30S 28°52' E 032°13'1 1.1
2017-May-29 11:00S 28°51' E 032°13'2 4.6
2017-May-29 10:30S 28°49' E 032°15'4 8.7
2017-May-29 10:00S 28°46' E 032°18'4 8.1
2017-May-29 09:30S 28°43' E 032°21'0 0.9
2017-May-29 08:59S 28°44' E 032°21'1 1.2
2017-May-29 08:30S 28°44' E 032°21'1 1.6
2017-May-29 08:00S 28°44' E 032°20'1 1.8
2017-May-29 07:30S 28°45' E 032°19'1 2.0
2017-May-29 07:00S 28°45' E 032°18'1 2.0
2017-May-29 06:30S 28°46' E 032°17'1 2.0
2017-May-29 06:00S 28°47' E 032°16'2 3.4
2017-May-29 05:30S 28°48' E 032°15'4 7.4
2017-May-29 05:01S 28°51' E 032°13'3 6.1
2017-May-29 04:30S 28°48' E 032°14'2 3.5
2017-May-29 04:00S 28°47' E 032°16'2 3.1
2017-May-29 03:30S 28°46' E 032°17'2 4.3
2017-May-29 03:00S 28°44' E 032°18'1 2.8
2017-May-29 02:30S 28°43' E 032°20'2 3.1
2017-May-29 02:00S 28°42' E 032°21'2 3.4
2017-May-29 01:30S 28°41' E 032°22'1 2.7
2017-May-29 01:00S 28°40' E 032°23'1 1.3
2017-May-29 00:28S 28°40' E 032°23'0 1.0
2017-May-28 23:59S 28°40' E 032°22'1 1.2
2017-May-28 23:14S 28°41' E 032°23'0 1.1
2017-May-28 23:01S 28°41' E 032°23'1 1.1
2017-May-28 22:30S 28°41' E 032°23'1 1.0
2017-May-28 22:00S 28°42' E 032°22'1 1.0
2017-May-28 21:29S 28°42' E 032°22'1 1.9
2017-May-28 21:00S 28°43' E 032°22'1 1.5
2017-May-28 20:31S 28°43' E 032°22'0 0.8
2017-May-28 20:00S 28°44' E 032°22'1 1.1
2017-May-28 19:30S 28°44' E 032°21'1 1.4
2017-May-28 19:00S 28°45' E 032°22'1 1.3
2017-May-28 18:29S 28°44' E 032°21'1 1.6
2017-May-28 18:00S 28°45' E 032°20'1 1.5
2017-May-28 17:27S 28°45' E 032°20'1 1.7
2017-May-28 17:01S 28°46' E 032°19'1 1.9
2017-May-28 16:30S 28°47' E 032°19'1 2.4
2017-May-28 16:00S 28°47' E 032°18'1 2.3
2017-May-28 15:30S 28°48' E 032°16'1 1.8
2017-May-28 15:01S 28°47' E 032°16'1 0.6
2017-May-28 13:57S 28°47' E 032°15'0 0.1
2017-May-28 13:30S 28°47' E 032°15'0 0.0
2017-May-28 13:00S 28°47' E 032°15'0 0.1
2017-May-28 12:30S 28°47' E 032°15'0 0.1
2017-May-28 11:54S 28°47' E 032°15'0 0.1
2017-May-28 11:30S 28°47' E 032°15'0 0.2
2017-May-28 11:00S 28°47' E 032°15'0 0.2
2017-May-28 10:30S 28°47' E 032°15'0 0.3
2017-May-28 09:59S 28°47' E 032°15'0 0.3
2017-May-28 09:29S 28°47' E 032°15'0 0.1
2017-May-28 08:59S 28°47' E 032°15'0 0.2
2017-May-28 08:29S 28°47' E 032°15'0 0.2
2017-May-28 07:59S 28°47' E 032°15'0 0.5
2017-May-28 07:23S 28°47' E 032°15'0 0.2
2017-May-28 06:59S 28°48' E 032°15'0 0.1
2017-May-28 06:29S 28°48' E 032°15'0 0.1
2017-May-28 05:55S 28°48' E 032°15'0 0.1
2017-May-28 05:28S 28°48' E 032°15'0 0.1
2017-May-28 04:58S 28°48' E 032°15'0 0.0
2017-May-28 04:28S 28°48' E 032°15'0 0.1
2017-May-28 03:52S 28°48' E 032°15'0 0.1
2017-May-28 03:28S 28°48' E 032°15'0 0.0
2017-May-28 02:58S 28°48' E 032°15'0 0.0
2017-May-28 02:25S 28°48' E 032°15'0 0.0
2017-May-28 01:58S 28°48' E 032°15'0 0.0
2017-May-28 01:28S 28°48' E 032°15'0 0.0
2017-May-28 00:58S 28°48' E 032°15'0 0.1
2017-May-28 00:28S 28°48' E 032°15'0 0.1
2017-May-27 23:49S 28°48' E 032°15'0 0.4
2017-May-27 23:28S 28°48' E 032°15'0 0.7
2017-May-27 22:58S 28°48' E 032°14'0 0.4
2017-May-27 22:28S 28°48' E 032°14'0 0.1
2017-May-27 21:58S 28°48' E 032°14'0 0.1
2017-May-27 21:28S 28°48' E 032°14'0 0.2
2017-May-27 20:58S 28°48' E 032°14'0 0.2
2017-May-27 20:30S 28°48' E 032°14'0 0.1
2017-May-27 19:57S 28°48' E 032°14'0 0.1
2017-May-27 19:30S 28°48' E 032°14'0 0.0
2017-May-27 18:57S 28°48' E 032°14'0 0.0
2017-May-27 18:30S 28°48' E 032°14'0 0.1
2017-May-27 17:58S 28°48' E 032°14'0 0.0
2017-May-27 17:28S 28°48' E 032°14'0 0.0
2017-May-27 17:00S 28°48' E 032°14'0 0.0
2017-May-27 16:30S 28°48' E 032°14'0 0.1
2017-May-27 16:00S 28°48' E 032°14'0 0.0
2017-May-27 15:30S 28°48' E 032°14'0 0.0
2017-May-27 15:00S 28°48' E 032°14'0 0.0
2017-May-27 13:59S 28°48' E 032°14'0 0.0
2017-May-27 13:29S 28°48' E 032°14'0 0.0
2017-May-27 12:59S 28°48' E 032°14'0 0.0
2017-May-27 12:29S 28°48' E 032°14'0 0.0
2017-May-27 11:59S 28°48' E 032°14'0 0.0
2017-May-27 11:29S 28°49' E 032°14'0 0.0
2017-May-27 10:59S 28°48' E 032°14'0 0.0
2017-May-27 10:25S 28°49' E 032°14'0 0.0
2017-May-27 09:58S 28°49' E 032°14'0 0.0
2017-May-27 09:26S 28°49' E 032°14'0 0.0
2017-May-27 08:55S 28°49' E 032°14'0 0.0
2017-May-27 08:25S 28°49' E 032°14'0 0.0
2017-May-27 07:58S 28°49' E 032°14'0 0.0
2017-May-27 07:28S 28°49' E 032°14'0 0.1
2017-May-27 06:55S 28°49' E 032°14'0 0.0
2017-May-27 06:28S 28°49' E 032°14'0 0.1
2017-May-27 06:00S 28°49' E 032°14'0 0.0
2017-May-27 05:30S 28°49' E 032°14'0 0.0
2017-May-27 05:00S 28°49' E 032°14'0 0.0
2017-May-27 04:27S 28°49' E 032°14'0 0.0
2017-May-27 04:00S 28°49' E 032°14'0 0.0
2017-May-27 03:30S 28°49' E 032°14'0 0.0
2017-May-27 03:00S 28°49' E 032°14'0 0.2
2017-May-27 02:30S 28°48' E 032°14'0 0.0
2017-May-27 02:00S 28°48' E 032°14'0 0.0
2017-May-27 01:30S 28°48' E 032°14'0 0.0
2017-May-27 01:00S 28°48' E 032°14'0 0.1
2017-May-27 00:30S 28°48' E 032°14'0 0.1
2017-May-26 23:59S 28°48' E 032°14'0 0.0
2017-May-26 23:29S 28°48' E 032°14'0 0.1
2017-May-26 22:59S 28°48' E 032°14'0 0.0
2017-May-26 22:26S 28°48' E 032°14'0 0.2
2017-May-26 21:59S 28°48' E 032°14'1 2.1
2017-May-26 21:30S 28°49' E 032°15'2 4.9
2017-May-26 21:00S 28°51' E 032°15'2 3.9
2017-May-26 20:30S 28°51' E 032°13'0 0.5
2017-May-26 19:58S 28°51' E 032°13'0 0.2
2017-May-26 19:28S 28°51' E 032°13'0 0.3
2017-May-26 18:58S 28°51' E 032°13'0 0.1
2017-May-26 18:30S 28°51' E 032°13'0 0.1
2017-May-26 17:59S 28°51' E 032°13'0 0.0
2017-May-26 17:29S 28°51' E 032°13'0 0.0
2017-May-26 16:59S 28°51' E 032°13'0 0.0
2017-May-26 16:29S 28°51' E 032°13'0 0.0
2017-May-26 15:59S 28°51' E 032°13'0 0.2
2017-May-26 15:30S 28°51' E 032°13'0 0.1
2017-May-26 14:59S 28°51' E 032°13'0 0.3
2017-May-26 14:28S 28°51' E 032°13'0 0.1
2017-May-26 13:30S 28°51' E 032°13'0 0.1
2017-May-26 13:00S 28°51' E 032°13'0 0.0
2017-May-26 12:29S 28°51' E 032°13'0 0.0
2017-May-26 11:59S 28°51' E 032°13'0 0.0
2017-May-26 11:30S 28°51' E 032°13'0 0.0
2017-May-26 11:00S 28°51' E 032°13'0 0.0
2017-May-26 10:29S 28°51' E 032°13'0 0.0
2017-May-26 10:00S 28°51' E 032°13'0 0.0
2017-May-26 09:30S 28°51' E 032°13'0 0.0
2017-May-26 08:56S 28°51' E 032°13'0 0.0
2017-May-26 08:19S 28°51' E 032°13'0 0.0
2017-May-26 07:55S 28°51' E 032°13'0 0.0
2017-May-26 07:28S 28°51' E 032°13'0 0.0
2017-May-26 07:00S 28°51' E 032°13'0 0.1
2017-May-26 06:30S 28°51' E 032°13'0 0.0
2017-May-26 05:59S 28°51' E 032°13'0 0.0
2017-May-26 05:29S 28°51' E 032°13'0 0.0
2017-May-26 04:59S 28°51' E 032°13'0 0.0
2017-May-26 04:29S 28°51' E 032°13'0 0.1
2017-May-26 03:59S 28°51' E 032°13'0 0.0
2017-May-26 03:29S 28°51' E 032°13'0 0.1
2017-May-26 02:59S 28°51' E 032°13'0 0.1
2017-May-26 02:29S 28°51' E 032°13'0 0.0
2017-May-26 01:59S 28°51' E 032°13'0 0.1
2017-May-26 01:29S 28°51' E 032°13'0 0.1
2017-May-26 00:53S 28°51' E 032°13'0 0.0
2017-May-26 00:29S 28°51' E 032°13'0 0.0
2017-May-25 23:59S 28°51' E 032°13'0 0.0
2017-May-25 23:16S 28°51' E 032°13'0 0.1
2017-May-25 22:58S 28°51' E 032°13'0 0.0
2017-May-25 22:28S 28°51' E 032°13'0 0.1
2017-May-25 21:45S 28°51' E 032°13'0 0.1
2017-May-25 21:30S 28°51' E 032°13'0 0.0
2017-May-25 20:49S 28°51' E 032°13'0 0.0
2017-May-25 20:28S 28°51' E 032°13'0 0.0
2017-May-25 19:58S 28°51' E 032°13'0 0.0
2017-May-25 19:22S 28°51' E 032°13'0 0.0
2017-May-25 19:00S 28°51' E 032°13'0 0.0
2017-May-25 18:30S 28°51' E 032°13'0 0.0
2017-May-25 17:58S 28°51' E 032°13'0 0.0
2017-May-25 17:22S 28°51' E 032°13'0 0.0
2017-May-25 16:52S 28°51' E 032°13'0 0.0
2017-May-25 13:58S 28°51' E 032°13'0 0.0
2017-May-25 13:28S 28°51' E 032°13'0 0.1
2017-May-25 12:58S 28°51' E 032°13'0 0.1
2017-May-25 12:22S 28°51' E 032°13'0 0.0
2017-May-25 11:58S 28°51' E 032°13'0 0.0
2017-May-25 11:30S 28°51' E 032°13'0 0.0
2017-May-25 10:59S 28°51' E 032°13'0 0.0
2017-May-25 10:29S 28°51' E 032°13'0 0.0
2017-May-25 09:59S 28°51' E 032°13'0 0.0
2017-May-25 09:25S 28°51' E 032°13'0 0.1
2017-May-25 08:58S 28°51' E 032°13'0 0.0
2017-May-25 08:28S 28°51' E 032°13'0 0.0
2017-May-25 07:58S 28°51' E 032°13'0 0.0
2017-May-25 07:28S 28°51' E 032°13'0 0.0
2017-May-25 06:58S 28°51' E 032°13'0 0.1
2017-May-25 06:28S 28°51' E 032°13'0 0.0
2017-May-25 06:00S 28°51' E 032°13'0 0.1
2017-May-25 05:31S 28°51' E 032°13'0 0.1
2017-May-25 05:00S 28°51' E 032°13'0 0.0
2017-May-25 04:30S 28°51' E 032°13'0 0.1
2017-May-25 04:00S 28°51' E 032°13'0 0.1
2017-May-25 03:30S 28°51' E 032°13'0 0.0
2017-May-25 03:00S 28°51' E 032°13'0 0.1
2017-May-25 02:30S 28°51' E 032°13'0 0.1
2017-May-25 02:00S 28°51' E 032°13'0 0.1
2017-May-25 01:30S 28°51' E 032°13'0 0.1
2017-May-25 01:00S 28°51' E 032°13'0 0.1
2017-May-25 00:30S 28°51' E 032°13'0 0.1
2017-May-25 00:00S 28°51' E 032°13'0 0.0
2017-May-24 23:30S 28°51' E 032°13'0 0.1
2017-May-24 23:00S 28°51' E 032°13'0 0.0
2017-May-24 22:29S 28°51' E 032°13'0 0.1
2017-May-24 22:00S 28°51' E 032°13'0 0.3
2017-May-24 21:28S 28°51' E 032°13'0 0.2
2017-May-24 20:58S 28°51' E 032°13'0 0.0
2017-May-24 20:28S 28°51' E 032°13'0 0.1
2017-May-24 20:00S 28°51' E 032°13'0 0.0
2017-May-24 19:28S 28°51' E 032°13'0 0.1
2017-May-24 19:01S 28°51' E 032°13'0 0.1
2017-May-24 18:28S 28°51' E 032°13'0 0.0
2017-May-24 17:58S 28°51' E 032°13'0 0.1
2017-May-24 17:30S 28°51' E 032°13'0 0.0
2017-May-24 17:00S 28°51' E 032°13'0 0.1
2017-May-24 16:30S 28°51' E 032°13'0 0.1
2017-May-24 16:00S 28°51' E 032°13'0 0.0
2017-May-24 15:30S 28°51' E 032°13'0 0.0
2017-May-24 15:00S 28°51' E 032°13'0 0.0
2017-May-24 14:28S 28°51' E 032°13'0 0.0
2017-May-24 13:30S 28°51' E 032°13'0 0.0
2017-May-24 12:57S 28°51' E 032°13'0 0.0
2017-May-24 12:26S 28°51' E 032°13'0 0.0
2017-May-24 12:00S 28°51' E 032°13'0 0.1
2017-May-24 11:30S 28°51' E 032°13'0 0.0
2017-May-24 11:01S 28°51' E 032°13'0 0.0
2017-May-24 10:31S 28°51' E 032°13'0 0.0
2017-May-24 09:59S 28°51' E 032°13'0 0.2
2017-May-24 09:28S 28°51' E 032°13'0 0.1
2017-May-24 09:00S 28°51' E 032°13'0 0.0
2017-May-24 08:31S 28°51' E 032°13'0 0.0
2017-May-24 08:00S 28°51' E 032°13'0 0.0
2017-May-24 07:30S 28°51' E 032°13'0 0.0
2017-May-24 07:00S 28°51' E 032°13'0 0.1
2017-May-24 06:30S 28°51' E 032°13'0 0.0
2017-May-24 06:00S 28°51' E 032°13'0 0.1
2017-May-24 05:31S 28°51' E 032°13'0 0.0
2017-May-24 04:59S 28°51' E 032°13'0 0.0
2017-May-24 04:28S 28°51' E 032°13'0 0.1
2017-May-24 04:00S 28°51' E 032°13'0 0.1
2017-May-24 03:30S 28°51' E 032°13'0 0.1
2017-May-24 03:00S 28°51' E 032°13'0 0.0
2017-May-24 02:30S 28°51' E 032°13'0 0.1
2017-May-24 02:00S 28°51' E 032°13'0 0.0
2017-May-24 01:30S 28°51' E 032°13'0 0.0
2017-May-24 01:00S 28°51' E 032°13'0 0.1
2017-May-24 00:30S 28°51' E 032°13'0 0.1
2017-May-23 23:59S 28°51' E 032°13'0 0.1
2017-May-23 23:29S 28°51' E 032°13'0 0.0
2017-May-23 22:56S 28°51' E 032°13'0 0.0
2017-May-23 22:30S 28°51' E 032°13'0 0.0
2017-May-23 21:56S 28°51' E 032°13'0 0.0
2017-May-23 21:30S 28°51' E 032°13'0 0.0
2017-May-23 21:00S 28°51' E 032°13'0 0.0
2017-May-23 20:29S 28°51' E 032°13'0 0.0
2017-May-23 19:59S 28°51' E 032°13'0 0.0
2017-May-23 19:28S 28°51' E 032°13'0 0.0
2017-May-23 18:58S 28°51' E 032°13'0 0.0
2017-May-23 18:29S 28°51' E 032°13'0 0.0
2017-May-23 17:55S 28°51' E 032°13'0 0.1
2017-May-23 17:25S 28°51' E 032°13'0 0.1
2017-May-23 17:00S 28°51' E 032°13'0 0.0
2017-May-23 16:30S 28°51' E 032°13'0 0.1
2017-May-23 15:59S 28°51' E 032°13'0 0.0
2017-May-23 15:28S 28°51' E 032°13'0 0.0
2017-May-23 15:00S 28°51' E 032°13'0 0.0
2017-May-23 13:59S 28°51' E 032°13'0 0.0
2017-May-23 13:29S 28°51' E 032°13'0 0.1
2017-May-23 12:58S 28°51' E 032°13'0 0.1
2017-May-23 12:28S 28°51' E 032°13'0 0.1
2017-May-23 12:00S 28°51' E 032°13'0 0.1
2017-May-23 11:29S 28°51' E 032°13'0 0.1
2017-May-23 11:00S 28°51' E 032°13'0 0.1
2017-May-23 10:30S 28°51' E 032°13'0 0.1
2017-May-23 09:59S 28°51' E 032°13'0 0.0
2017-May-23 09:29S 28°51' E 032°13'0 0.0
2017-May-23 08:58S 28°51' E 032°13'0 0.0
2017-May-23 08:27S 28°51' E 032°13'0 0.0
2017-May-23 08:00S 28°51' E 032°13'0 0.0
2017-May-23 07:30S 28°51' E 032°13'0 0.0
2017-May-23 06:58S 28°51' E 032°13'0 0.0
2017-May-23 06:28S 28°51' E 032°13'0 0.0
2017-May-23 05:57S 28°51' E 032°13'0 0.0
2017-May-23 05:27S 28°51' E 032°13'0 0.0
2017-May-23 05:00S 28°51' E 032°13'0 0.0
2017-May-23 04:29S 28°51' E 032°13'0 0.0
2017-May-23 03:59S 28°51' E 032°13'0 0.0
2017-May-23 03:28S 28°51' E 032°13'0 0.0
2017-May-23 02:58S 28°51' E 032°13'0 0.0
2017-May-23 02:28S 28°51' E 032°13'0 0.0
2017-May-23 01:58S 28°51' E 032°13'0 0.0
2017-May-23 01:28S 28°51' E 032°13'0 0.1
2017-May-23 01:01S 28°51' E 032°13'0 0.0
2017-May-23 00:29S 28°51' E 032°13'0 0.0
2017-May-22 23:59S 28°51' E 032°13'0 0.1
2017-May-22 23:30S 28°51' E 032°13'0 0.1
2017-May-22 23:00S 28°51' E 032°13'0 0.0
2017-May-22 22:30S 28°51' E 032°13'0 0.0
2017-May-22 21:58S 28°51' E 032°13'0 0.1
2017-May-22 21:29S 28°51' E 032°13'0 0.2
2017-May-22 20:59S 28°51' E 032°13'0 0.1
2017-May-22 20:28S 28°51' E 032°13'0 0.0
2017-May-22 20:00S 28°51' E 032°13'0 0.0
2017-May-22 19:30S 28°51' E 032°13'0 0.0
2017-May-22 19:00S 28°51' E 032°13'0 0.0
2017-May-22 18:30S 28°51' E 032°13'0 0.0
2017-May-22 17:59S 28°51' E 032°13'0 0.0
2017-May-22 17:30S 28°51' E 032°13'0 0.0
2017-May-22 17:00S 28°51' E 032°13'0 0.0
2017-May-22 16:29S 28°51' E 032°13'0 0.0
2017-May-22 15:58S 28°51' E 032°13'0 0.0
2017-May-22 15:30S 28°51' E 032°13'0 0.0
2017-May-22 15:00S 28°51' E 032°13'0 0.0
2017-May-22 14:00S 28°51' E 032°13'0 0.0
2017-May-22 13:30S 28°51' E 032°13'0 0.0
2017-May-22 13:00S 28°51' E 032°13'0 0.0
2017-May-22 12:30S 28°51' E 032°13'0 0.0
2017-May-22 12:00S 28°51' E 032°13'0 0.0
2017-May-22 11:30S 28°51' E 032°13'0 0.1
2017-May-22 11:00S 28°51' E 032°13'0 0.0
2017-May-22 10:30S 28°51' E 032°13'0 0.0
2017-May-22 10:00S 28°51' E 032°13'0 0.1
2017-May-22 09:30S 28°51' E 032°13'0 0.1
2017-May-22 09:00S 28°51' E 032°13'0 0.0
2017-May-22 08:22S 28°51' E 032°13'0 0.0
2017-May-22 07:58S 28°51' E 032°13'0 0.0
2017-May-22 07:30S 28°51' E 032°13'0 0.0
2017-May-22 06:59S 28°51' E 032°13'0 0.0
2017-May-22 06:30S 28°51' E 032°13'0 0.0
2017-May-22 06:00S 28°51' E 032°13'0 0.0
2017-May-22 05:30S 28°51' E 032°13'0 0.0
2017-May-22 05:00S 28°51' E 032°13'0 0.0
2017-May-22 04:30S 28°51' E 032°13'0 0.0
2017-May-22 04:00S 28°51' E 032°13'0 0.0
2017-May-22 03:30S 28°51' E 032°13'0 0.0
2017-May-22 02:57S 28°51' E 032°13'0 0.0
2017-May-22 02:30S 28°51' E 032°13'0 0.0
2017-May-22 02:00S 28°51' E 032°13'0 0.0
2017-May-22 01:30S 28°51' E 032°13'0 0.0
2017-May-22 00:56S 28°51' E 032°13'0 0.0
2017-May-22 00:29S 28°51' E 032°13'0 0.0
2017-May-21 23:59S 28°51' E 032°13'0 0.0
2017-May-21 23:29S 28°51' E 032°13'0 0.0
2017-May-21 23:00S 28°51' E 032°13'0 0.0
2017-May-21 22:28S 28°51' E 032°13'0 0.0
2017-May-21 21:58S 28°51' E 032°13'0 0.0
2017-May-21 21:30S 28°51' E 032°13'0 0.1
2017-May-21 20:59S 28°51' E 032°13'0 0.0
2017-May-21 20:25S 28°51' E 032°13'0 0.0
2017-May-21 19:45S 28°51' E 032°13'0 0.0
2017-May-21 19:30S 28°51' E 032°13'0 0.0
2017-May-21 18:58S 28°51' E 032°13'0 0.1
2017-May-21 18:30S 28°51' E 032°13'0 0.0
2017-May-21 18:00S 28°51' E 032°13'0 0.1
2017-May-21 17:30S 28°51' E 032°13'0 0.1
2017-May-21 16:59S 28°51' E 032°13'0 0.2
2017-May-21 16:30S 28°51' E 032°13'0 0.1
2017-May-21 15:58S 28°51' E 032°13'0 0.1
2017-May-21 15:30S 28°51' E 032°13'0 0.0
2017-May-21 14:55S 28°51' E 032°13'0 0.0
2017-May-21 14:30S 28°51' E 032°13'0 0.0
2017-May-21 13:26S 28°51' E 032°13'0 0.0
2017-May-21 13:00S 28°51' E 032°13'0 0.0
2017-May-21 12:28S 28°51' E 032°13'0 0.0
2017-May-21 12:00S 28°51' E 032°13'0 0.0
2017-May-21 11:30S 28°51' E 032°13'0 0.0
2017-May-21 11:00S 28°51' E 032°13'0 0.0
2017-May-21 10:29S 28°51' E 032°13'0 0.0
2017-May-21 10:00S 28°51' E 032°13'0 0.0
2017-May-21 09:29S 28°51' E 032°13'0 0.0
2017-May-21 08:59S 28°51' E 032°13'0 0.0
2017-May-21 08:29S 28°51' E 032°13'0 0.0
2017-May-21 07:58S 28°51' E 032°13'0 0.0
2017-May-21 07:25S 28°51' E 032°13'0 0.0
2017-May-21 06:53S 28°51' E 032°13'0 0.0
2017-May-21 06:29S 28°51' E 032°13'0 0.0
2017-May-21 05:59S 28°51' E 032°13'0 0.0
2017-May-21 05:28S 28°51' E 032°13'0 0.0
2017-May-21 04:58S 28°51' E 032°13'0 0.0
2017-May-21 04:30S 28°51' E 032°13'0 0.0
2017-May-21 03:58S 28°51' E 032°13'0 0.0
2017-May-21 03:28S 28°51' E 032°13'0 0.1
2017-May-21 02:58S 28°51' E 032°13'0 0.0
2017-May-21 02:28S 28°51' E 032°13'0 0.0
2017-May-21 01:58S 28°51' E 032°13'0 0.0
2017-May-21 01:28S 28°51' E 032°13'0 0.1
2017-May-21 00:58S 28°51' E 032°13'0 0.1
2017-May-21 00:30S 28°51' E 032°13'0 0.0
2017-May-21 00:00S 28°51' E 032°13'0 0.0
2017-May-20 23:30S 28°51' E 032°13'0 0.0
2017-May-20 22:58S 28°51' E 032°13'0 0.0
2017-May-20 22:30S 28°51' E 032°13'0 0.0
2017-May-20 21:58S 28°51' E 032°13'0 0.0
2017-May-20 21:28S 28°51' E 032°13'0 0.1
2017-May-20 21:00S 28°51' E 032°13'0 0.1
2017-May-20 20:30S 28°51' E 032°13'0 0.1
2017-May-20 20:00S 28°51' E 032°13'0 0.0
2017-May-20 19:30S 28°51' E 032°13'0 0.0
2017-May-20 19:00S 28°51' E 032°13'0 0.2
2017-May-20 18:30S 28°51' E 032°13'0 0.2
2017-May-20 17:58S 28°51' E 032°13'0 0.0
2017-May-20 17:30S 28°51' E 032°13'0 0.1
2017-May-20 16:58S 28°51' E 032°13'0 0.0
2017-May-20 16:30S 28°51' E 032°13'0 0.0
2017-May-20 15:58S 28°51' E 032°13'0 0.0
2017-May-20 15:29S 28°51' E 032°13'0 0.0
2017-May-20 15:00S 28°51' E 032°13'0 0.0
2017-May-20 14:30S 28°51' E 032°13'0 0.0
2017-May-20 13:30S 28°51' E 032°13'0 0.0
2017-May-20 13:00S 28°51' E 032°13'0 0.0
2017-May-20 12:30S 28°51' E 032°13'0 0.0
2017-May-20 12:00S 28°51' E 032°13'0 0.0
2017-May-20 11:30S 28°51' E 032°13'0 0.0
2017-May-20 11:00S 28°51' E 032°13'0 0.0
2017-May-20 10:30S 28°51' E 032°13'0 0.1
2017-May-20 10:00S 28°51' E 032°13'0 0.0
2017-May-20 09:30S 28°51' E 032°13'0 0.1
2017-May-20 09:01S 28°51' E 032°13'0 0.1
2017-May-20 08:30S 28°51' E 032°13'0 0.0
2017-May-20 08:00S 28°51' E 032°13'0 0.1
2017-May-20 07:30S 28°51' E 032°13'0 0.1
2017-May-20 06:58S 28°51' E 032°13'0 0.1
2017-May-20 06:28S 28°51' E 032°13'0 0.0
2017-May-20 05:59S 28°51' E 032°13'0 0.0
2017-May-20 05:29S 28°51' E 032°13'0 0.0
2017-May-20 04:58S 28°51' E 032°13'0 0.0
2017-May-20 04:19S 28°51' E 032°13'0 0.0
2017-May-20 03:58S 28°51' E 032°13'0 0.1
2017-May-20 03:28S 28°51' E 032°13'0 0.0
2017-May-20 02:55S 28°51' E 032°13'0 0.0
2017-May-20 02:28S 28°51' E 032°13'0 0.0
2017-May-20 01:58S 28°51' E 032°13'0 0.0
2017-May-20 01:28S 28°51' E 032°13'0 0.0
2017-May-20 00:58S 28°51' E 032°13'0 0.0
2017-May-20 00:28S 28°51' E 032°13'0 0.0
2017-May-20 00:01S 28°51' E 032°13'0 0.0
2017-May-19 23:28S 28°51' E 032°13'0 0.2
2017-May-19 23:00S 28°51' E 032°13'1 2.8
2017-May-19 22:30S 28°52' E 032°11'  
Track history (hours):
 
Tides and Currents Weather Stations Pressure Air Temp Water Temp Dewpoint Dewpoint Depression Visibility Wind Speed Wind Dir Waves Ship Positions

Almyros

Last reported at 2017-May-29 22:30 UTC. Time now 2017-May-29 22:58 UTC.
Position S 28°52' E 032°13'.

Length 189 m; draft 6.5 m.

Type: Cargo ship. MMSI: 248779000.

Date/timePositionNaut miles runAvg speedWind from/ knotsBaromVisibWave heightAir tempDewpointWater temp
2017-May-29 22:30S 28°52' E 032°13'0 0.0
2017-May-29 22:00S 28°52' E 032°13'0 0.1
2017-May-29 21:30S 28°52' E 032°13'0 0.1
2017-May-29 20:12S 28°52' E 032°13'0 0.1
2017-May-29 19:57S 28°52' E 032°13'0 0.0
2017-May-29 19:30S 28°52' E 032°13'0 0.0
2017-May-29 19:00S 28°52' E 032°13'0 0.0
2017-May-29 18:30S 28°52' E 032°13'0 0.0
2017-May-29 18:00S 28°52' E 032°13'0 0.0
2017-May-29 17:29S 28°52' E 032°13'0 0.0
2017-May-29 16:59S 28°52' E 032°13'0 0.2
2017-May-29 16:29S 28°52' E 032°13'0 0.1
2017-May-29 15:59S 28°52' E 032°13'0 0.0
2017-May-29 15:28S 28°52' E 032°13'0 0.1
2017-May-29 14:58S 28°52' E 032°13'0 0.1
2017-May-29 14:28S 28°52' E 032°13'0 0.0
2017-May-29 13:28S 28°52' E 032°13'0 0.0
2017-May-29 12:58S 28°52' E 032°13'0 0.1
2017-May-29 12:28S 28°52' E 032°13'0 0.0
2017-May-29 11:58S 28°52' E 032°13'0 0.1
2017-May-29 11:30S 28°52' E 032°13'1 1.1
2017-May-29 11:00S 28°51' E 032°13'2 4.6
2017-May-29 10:30S 28°49' E 032°15'4 8.7
2017-May-29 10:00S 28°46' E 032°18'4 8.1
2017-May-29 09:30S 28°43' E 032°21'0 0.9
2017-May-29 08:59S 28°44' E 032°21'1 1.2
2017-May-29 08:30S 28°44' E 032°21'1 1.6
2017-May-29 08:00S 28°44' E 032°20'1 1.8
2017-May-29 07:30S 28°45' E 032°19'1 2.0
2017-May-29 07:00S 28°45' E 032°18'1 2.0
2017-May-29 06:30S 28°46' E 032°17'1 2.0
2017-May-29 06:00S 28°47' E 032°16'2 3.4
2017-May-29 05:30S 28°48' E 032°15'4 7.4
2017-May-29 05:01S 28°51' E 032°13'3 6.1
2017-May-29 04:30S 28°48' E 032°14'2 3.5
2017-May-29 04:00S 28°47' E 032°16'2 3.1
2017-May-29 03:30S 28°46' E 032°17'2 4.3
2017-May-29 03:00S 28°44' E 032°18'1 2.8
2017-May-29 02:30S 28°43' E 032°20'2 3.1
2017-May-29 02:00S 28°42' E 032°21'2 3.4
2017-May-29 01:30S 28°41' E 032°22'1 2.7
2017-May-29 01:00S 28°40' E 032°23'1 1.3
2017-May-29 00:28S 28°40' E 032°23'0 1.0
2017-May-28 23:59S 28°40' E 032°22'1 1.2
2017-May-28 23:14S 28°41' E 032°23'0 1.1
2017-May-28 23:01S 28°41' E 032°23'1 1.1
2017-May-28 22:30S 28°41' E 032°23'1 1.0
2017-May-28 22:00S 28°42' E 032°22'1 1.0
2017-May-28 21:29S 28°42' E 032°22'1 1.9
2017-May-28 21:00S 28°43' E 032°22'1 1.5
2017-May-28 20:31S 28°43' E 032°22'0 0.8
2017-May-28 20:00S 28°44' E 032°22'1 1.1
2017-May-28 19:30S 28°44' E 032°21'1 1.4
2017-May-28 19:00S 28°45' E 032°22'1 1.3
2017-May-28 18:29S 28°44' E 032°21'1 1.6
2017-May-28 18:00S 28°45' E 032°20'1 1.5
2017-May-28 17:27S 28°45' E 032°20'1 1.7
2017-May-28 17:01S 28°46' E 032°19'1 1.9
2017-May-28 16:30S 28°47' E 032°19'1 2.4
2017-May-28 16:00S 28°47' E 032°18'1 2.3
2017-May-28 15:30S 28°48' E 032°16'1 1.8
2017-May-28 15:01S 28°47' E 032°16'1 0.6
2017-May-28 13:57S 28°47' E 032°15'0 0.1
2017-May-28 13:30S 28°47' E 032°15'0 0.0
2017-May-28 13:00S 28°47' E 032°15'0 0.1
2017-May-28 12:30S 28°47' E 032°15'0 0.1
2017-May-28 11:54S 28°47' E 032°15'0 0.1
2017-May-28 11:30S 28°47' E 032°15'0 0.2
2017-May-28 11:00S 28°47' E 032°15'0 0.2
2017-May-28 10:30S 28°47' E 032°15'0 0.3
2017-May-28 09:59S 28°47' E 032°15'0 0.3
2017-May-28 09:29S 28°47' E 032°15'0 0.1
2017-May-28 08:59S 28°47' E 032°15'0 0.2
2017-May-28 08:29S 28°47' E 032°15'0 0.2
2017-May-28 07:59S 28°47' E 032°15'0 0.5
2017-May-28 07:23S 28°47' E 032°15'0 0.2
2017-May-28 06:59S 28°48' E 032°15'0 0.1
2017-May-28 06:29S 28°48' E 032°15'0 0.1
2017-May-28 05:55S 28°48' E 032°15'0 0.1
2017-May-28 05:28S 28°48' E 032°15'0 0.1
2017-May-28 04:58S 28°48' E 032°15'0 0.0
2017-May-28 04:28S 28°48' E 032°15'0 0.1
2017-May-28 03:52S 28°48' E 032°15'0 0.1
2017-May-28 03:28S 28°48' E 032°15'0 0.0
2017-May-28 02:58S 28°48' E 032°15'0 0.0
2017-May-28 02:25S 28°48' E 032°15'0 0.0
2017-May-28 01:58S 28°48' E 032°15'0 0.0
2017-May-28 01:28S 28°48' E 032°15'0 0.0
2017-May-28 00:58S 28°48' E 032°15'0 0.1
2017-May-28 00:28S 28°48' E 032°15'0 0.1
2017-May-27 23:49S 28°48' E 032°15'0 0.4
2017-May-27 23:28S 28°48' E 032°15'0 0.7
2017-May-27 22:58S 28°48' E 032°14'0 0.4
2017-May-27 22:28S 28°48' E 032°14'0 0.1
2017-May-27 21:58S 28°48' E 032°14'0 0.1
2017-May-27 21:28S 28°48' E 032°14'0 0.2
2017-May-27 20:58S 28°48' E 032°14'0 0.2
2017-May-27 20:30S 28°48' E 032°14'0 0.1
2017-May-27 19:57S 28°48' E 032°14'0 0.1
2017-May-27 19:30S 28°48' E 032°14'0 0.0
2017-May-27 18:57S 28°48' E 032°14'0 0.0
2017-May-27 18:30S 28°48' E 032°14'0 0.1
2017-May-27 17:58S 28°48' E 032°14'0 0.0
2017-May-27 17:28S 28°48' E 032°14'0 0.0
2017-May-27 17:00S 28°48' E 032°14'0 0.0
2017-May-27 16:30S 28°48' E 032°14'0 0.1
2017-May-27 16:00S 28°48' E 032°14'0 0.0
2017-May-27 15:30S 28°48' E 032°14'0 0.0
2017-May-27 15:00S 28°48' E 032°14'0 0.0
2017-May-27 13:59S 28°48' E 032°14'0 0.0
2017-May-27 13:29S 28°48' E 032°14'0 0.0
2017-May-27 12:59S 28°48' E 032°14'0 0.0
2017-May-27 12:29S 28°48' E 032°14'0 0.0
2017-May-27 11:59S 28°48' E 032°14'0 0.0
2017-May-27 11:29S 28°49' E 032°14'0 0.0
2017-May-27 10:59S 28°48' E 032°14'0 0.0
2017-May-27 10:25S 28°49' E 032°14'0 0.0
2017-May-27 09:58S 28°49' E 032°14'0 0.0
2017-May-27 09:26S 28°49' E 032°14'0 0.0
2017-May-27 08:55S 28°49' E 032°14'0 0.0
2017-May-27 08:25S 28°49' E 032°14'0 0.0
2017-May-27 07:58S 28°49' E 032°14'0 0.0
2017-May-27 07:28S 28°49' E 032°14'0 0.1
2017-May-27 06:55S 28°49' E 032°14'0 0.0
2017-May-27 06:28S 28°49' E 032°14'0 0.1
2017-May-27 06:00S 28°49' E 032°14'0 0.0
2017-May-27 05:30S 28°49' E 032°14'0 0.0
2017-May-27 05:00S 28°49' E 032°14'0 0.0
2017-May-27 04:27S 28°49' E 032°14'0 0.0
2017-May-27 04:00S 28°49' E 032°14'0 0.0
2017-May-27 03:30S 28°49' E 032°14'0 0.0
2017-May-27 03:00S 28°49' E 032°14'0 0.2
2017-May-27 02:30S 28°48' E 032°14'0 0.0
2017-May-27 02:00S 28°48' E 032°14'0 0.0
2017-May-27 01:30S 28°48' E 032°14'0 0.0
2017-May-27 01:00S 28°48' E 032°14'0 0.1
2017-May-27 00:30S 28°48' E 032°14'0 0.1
2017-May-26 23:59S 28°48' E 032°14'0 0.0
2017-May-26 23:29S 28°48' E 032°14'0 0.1
2017-May-26 22:59S 28°48' E 032°14'0 0.0
2017-May-26 22:26S 28°48' E 032°14'0 0.2
2017-May-26 21:59S 28°48' E 032°14'1 2.1
2017-May-26 21:30S 28°49' E 032°15'2 4.9
2017-May-26 21:00S 28°51' E 032°15'2 3.9
2017-May-26 20:30S 28°51' E 032°13'0 0.5
2017-May-26 19:58S 28°51' E 032°13'0 0.2
2017-May-26 19:28S 28°51' E 032°13'0 0.3
2017-May-26 18:58S 28°51' E 032°13'0 0.1
2017-May-26 18:30S 28°51' E 032°13'0 0.1
2017-May-26 17:59S 28°51' E 032°13'0 0.0
2017-May-26 17:29S 28°51' E 032°13'0 0.0
2017-May-26 16:59S 28°51' E 032°13'0 0.0
2017-May-26 16:29S 28°51' E 032°13'0 0.0
2017-May-26 15:59S 28°51' E 032°13'0 0.2
2017-May-26 15:30S 28°51' E 032°13'0 0.1
2017-May-26 14:59S 28°51' E 032°13'0 0.3
2017-May-26 14:28S 28°51' E 032°13'0 0.1
2017-May-26 13:30S 28°51' E 032°13'0 0.1
2017-May-26 13:00S 28°51' E 032°13'0 0.0
2017-May-26 12:29S 28°51' E 032°13'0 0.0
2017-May-26 11:59S 28°51' E 032°13'0 0.0
2017-May-26 11:30S 28°51' E 032°13'0 0.0
2017-May-26 11:00S 28°51' E 032°13'0 0.0
2017-May-26 10:29S 28°51' E 032°13'0 0.0
2017-May-26 10:00S 28°51' E 032°13'0 0.0
2017-May-26 09:30S 28°51' E 032°13'0 0.0
2017-May-26 08:56S 28°51' E 032°13'0 0.0
2017-May-26 08:19S 28°51' E 032°13'0 0.0
2017-May-26 07:55S 28°51' E 032°13'0 0.0
2017-May-26 07:28S 28°51' E 032°13'0 0.0
2017-May-26 07:00S 28°51' E 032°13'0 0.1
2017-May-26 06:30S 28°51' E 032°13'0 0.0
2017-May-26 05:59S 28°51' E 032°13'0 0.0
2017-May-26 05:29S 28°51' E 032°13'0 0.0
2017-May-26 04:59S 28°51' E 032°13'0 0.0
2017-May-26 04:29S 28°51' E 032°13'0 0.1
2017-May-26 03:59S 28°51' E 032°13'0 0.0
2017-May-26 03:29S 28°51' E 032°13'0 0.1
2017-May-26 02:59S 28°51' E 032°13'0 0.1
2017-May-26 02:29S 28°51' E 032°13'0 0.0
2017-May-26 01:59S 28°51' E 032°13'0 0.1
2017-May-26 01:29S 28°51' E 032°13'0 0.1
2017-May-26 00:53S 28°51' E 032°13'0 0.0
2017-May-26 00:29S 28°51' E 032°13'0 0.0
2017-May-25 23:59S 28°51' E 032°13'0 0.0
2017-May-25 23:16S 28°51' E 032°13'0 0.1
2017-May-25 22:58S 28°51' E 032°13'0 0.0
2017-May-25 22:28S 28°51' E 032°13'0 0.1
2017-May-25 21:45S 28°51' E 032°13'0 0.1
2017-May-25 21:30S 28°51' E 032°13'0 0.0
2017-May-25 20:49S 28°51' E 032°13'0 0.0
2017-May-25 20:28S 28°51' E 032°13'0 0.0
2017-May-25 19:58S 28°51' E 032°13'0 0.0
2017-May-25 19:22S 28°51' E 032°13'0 0.0
2017-May-25 19:00S 28°51' E 032°13'0 0.0
2017-May-25 18:30S 28°51' E 032°13'0 0.0
2017-May-25 17:58S 28°51' E 032°13'0 0.0
2017-May-25 17:22S 28°51' E 032°13'0 0.0
2017-May-25 16:52S 28°51' E 032°13'0 0.0
2017-May-25 13:58S 28°51' E 032°13'0 0.0
2017-May-25 13:28S 28°51' E 032°13'0 0.1
2017-May-25 12:58S 28°51' E 032°13'0 0.1
2017-May-25 12:22S 28°51' E 032°13'0 0.0
2017-May-25 11:58S 28°51' E 032°13'0 0.0
2017-May-25 11:30S 28°51' E 032°13'0 0.0
2017-May-25 10:59S 28°51' E 032°13'0 0.0
2017-May-25 10:29S 28°51' E 032°13'0 0.0
2017-May-25 09:59S 28°51' E 032°13'0 0.0
2017-May-25 09:25S 28°51' E 032°13'0 0.1
2017-May-25 08:58S 28°51' E 032°13'0 0.0
2017-May-25 08:28S 28°51' E 032°13'0 0.0
2017-May-25 07:58S 28°51' E 032°13'0 0.0
2017-May-25 07:28S 28°51' E 032°13'0 0.0
2017-May-25 06:58S 28°51' E 032°13'0 0.1
2017-May-25 06:28S 28°51' E 032°13'0 0.0
2017-May-25 06:00S 28°51' E 032°13'0 0.1
2017-May-25 05:31S 28°51' E 032°13'0 0.1
2017-May-25 05:00S 28°51' E 032°13'0 0.0
2017-May-25 04:30S 28°51' E 032°13'0 0.1
2017-May-25 04:00S 28°51' E 032°13'0 0.1
2017-May-25 03:30S 28°51' E 032°13'0 0.0
2017-May-25 03:00S 28°51' E 032°13'0 0.1
2017-May-25 02:30S 28°51' E 032°13'0 0.1
2017-May-25 02:00S 28°51' E 032°13'0 0.1
2017-May-25 01:30S 28°51' E 032°13'0 0.1
2017-May-25 01:00S 28°51' E 032°13'0 0.1
2017-May-25 00:30S 28°51' E 032°13'0 0.1
2017-May-25 00:00S 28°51' E 032°13'0 0.0
2017-May-24 23:30S 28°51' E 032°13'0 0.1
2017-May-24 23:00S 28°51' E 032°13'0 0.0
2017-May-24 22:29S 28°51' E 032°13'0 0.1
2017-May-24 22:00S 28°51' E 032°13'0 0.3
2017-May-24 21:28S 28°51' E 032°13'0 0.2
2017-May-24 20:58S 28°51' E 032°13'0 0.0
2017-May-24 20:28S 28°51' E 032°13'0 0.1
2017-May-24 20:00S 28°51' E 032°13'0 0.0
2017-May-24 19:28S 28°51' E 032°13'0 0.1
2017-May-24 19:01S 28°51' E 032°13'0 0.1
2017-May-24 18:28S 28°51' E 032°13'0 0.0
2017-May-24 17:58S 28°51' E 032°13'0 0.1
2017-May-24 17:30S 28°51' E 032°13'0 0.0
2017-May-24 17:00S 28°51' E 032°13'0 0.1
2017-May-24 16:30S 28°51' E 032°13'0 0.1
2017-May-24 16:00S 28°51' E 032°13'0 0.0
2017-May-24 15:30S 28°51' E 032°13'0 0.0
2017-May-24 15:00S 28°51' E 032°13'0 0.0
2017-May-24 14:28S 28°51' E 032°13'0 0.0
2017-May-24 13:30S 28°51' E 032°13'0 0.0
2017-May-24 12:57S 28°51' E 032°13'0 0.0
2017-May-24 12:26S 28°51' E 032°13'0 0.0
2017-May-24 12:00S 28°51' E 032°13'0 0.1
2017-May-24 11:30S 28°51' E 032°13'0 0.0
2017-May-24 11:01S 28°51' E 032°13'0 0.0
2017-May-24 10:31S 28°51' E 032°13'0 0.0
2017-May-24 09:59S 28°51' E 032°13'0 0.2
2017-May-24 09:28S 28°51' E 032°13'0 0.1
2017-May-24 09:00S 28°51' E 032°13'0 0.0
2017-May-24 08:31S 28°51' E 032°13'0 0.0
2017-May-24 08:00S 28°51' E 032°13'0 0.0
2017-May-24 07:30S 28°51' E 032°13'0 0.0
2017-May-24 07:00S 28°51' E 032°13'0 0.1
2017-May-24 06:30S 28°51' E 032°13'0 0.0
2017-May-24 06:00S 28°51' E 032°13'0 0.1
2017-May-24 05:31S 28°51' E 032°13'0 0.0
2017-May-24 04:59S 28°51' E 032°13'0 0.0
2017-May-24 04:28S 28°51' E 032°13'0 0.1
2017-May-24 04:00S 28°51' E 032°13'0 0.1
2017-May-24 03:30S 28°51' E 032°13'0 0.1
2017-May-24 03:00S 28°51' E 032°13'0 0.0
2017-May-24 02:30S 28°51' E 032°13'0 0.1
2017-May-24 02:00S 28°51' E 032°13'0 0.0
2017-May-24 01:30S 28°51' E 032°13'0 0.0
2017-May-24 01:00S 28°51' E 032°13'0 0.1
2017-May-24 00:30S 28°51' E 032°13'0 0.1
2017-May-23 23:59S 28°51' E 032°13'0 0.1
2017-May-23 23:29S 28°51' E 032°13'0 0.0
2017-May-23 22:56S 28°51' E 032°13'0 0.0
2017-May-23 22:30S 28°51' E 032°13'0 0.0
2017-May-23 21:56S 28°51' E 032°13'0 0.0
2017-May-23 21:30S 28°51' E 032°13'0 0.0
2017-May-23 21:00S 28°51' E 032°13'0 0.0
2017-May-23 20:29S 28°51' E 032°13'0 0.0
2017-May-23 19:59S 28°51' E 032°13'0 0.0
2017-May-23 19:28S 28°51' E 032°13'0 0.0
2017-May-23 18:58S 28°51' E 032°13'0 0.0
2017-May-23 18:29S 28°51' E 032°13'0 0.0
2017-May-23 17:55S 28°51' E 032°13'0 0.1
2017-May-23 17:25S 28°51' E 032°13'0 0.1
2017-May-23 17:00S 28°51' E 032°13'0 0.0
2017-May-23 16:30S 28°51' E 032°13'0 0.1
2017-May-23 15:59S 28°51' E 032°13'0 0.0
2017-May-23 15:28S 28°51' E 032°13'0 0.0
2017-May-23 15:00S 28°51' E 032°13'0 0.0
2017-May-23 13:59S 28°51' E 032°13'0 0.0
2017-May-23 13:29S 28°51' E 032°13'0 0.1
2017-May-23 12:58S 28°51' E 032°13'0 0.1
2017-May-23 12:28S 28°51' E 032°13'0 0.1
2017-May-23 12:00S 28°51' E 032°13'0 0.1
2017-May-23 11:29S 28°51' E 032°13'0 0.1
2017-May-23 11:00S 28°51' E 032°13'0 0.1
2017-May-23 10:30S 28°51' E 032°13'0 0.1
2017-May-23 09:59S 28°51' E 032°13'0 0.0
2017-May-23 09:29S 28°51' E 032°13'0 0.0
2017-May-23 08:58S 28°51' E 032°13'0 0.0
2017-May-23 08:27S 28°51' E 032°13'0 0.0
2017-May-23 08:00S 28°51' E 032°13'0 0.0
2017-May-23 07:30S 28°51' E 032°13'0 0.0
2017-May-23 06:58S 28°51' E 032°13'0 0.0
2017-May-23 06:28S 28°51' E 032°13'0 0.0
2017-May-23 05:57S 28°51' E 032°13'0 0.0
2017-May-23 05:27S 28°51' E 032°13'0 0.0
2017-May-23 05:00S 28°51' E 032°13'0 0.0
2017-May-23 04:29S 28°51' E 032°13'0 0.0
2017-May-23 03:59S 28°51' E 032°13'0 0.0
2017-May-23 03:28S 28°51' E 032°13'0 0.0
2017-May-23 02:58S 28°51' E 032°13'0 0.0
2017-May-23 02:28S 28°51' E 032°13'0 0.0
2017-May-23 01:58S 28°51' E 032°13'0 0.0
2017-May-23 01:28S 28°51' E 032°13'0 0.1
2017-May-23 01:01S 28°51' E 032°13'0 0.0
2017-May-23 00:29S 28°51' E 032°13'0 0.0
2017-May-22 23:59S 28°51' E 032°13'0 0.1
2017-May-22 23:30S 28°51' E 032°13'0 0.1
2017-May-22 23:00S 28°51' E 032°13'0 0.0
2017-May-22 22:30S 28°51' E 032°13'0 0.0
2017-May-22 21:58S 28°51' E 032°13'0 0.1
2017-May-22 21:29S 28°51' E 032°13'0 0.2
2017-May-22 20:59S 28°51' E 032°13'0 0.1
2017-May-22 20:28S 28°51' E 032°13'0 0.0
2017-May-22 20:00S 28°51' E 032°13'0 0.0
2017-May-22 19:30S 28°51' E 032°13'0 0.0
2017-May-22 19:00S 28°51' E 032°13'0 0.0
2017-May-22 18:30S 28°51' E 032°13'0 0.0
2017-May-22 17:59S 28°51' E 032°13'0 0.0
2017-May-22 17:30S 28°51' E 032°13'0 0.0
2017-May-22 17:00S 28°51' E 032°13'0 0.0
2017-May-22 16:29S 28°51' E 032°13'0 0.0
2017-May-22 15:58S 28°51' E 032°13'0 0.0
2017-May-22 15:30S 28°51' E 032°13'0 0.0
2017-May-22 15:00S 28°51' E 032°13'0 0.0
2017-May-22 14:00S 28°51' E 032°13'0 0.0
2017-May-22 13:30S 28°51' E 032°13'0 0.0
2017-May-22 13:00S 28°51' E 032°13'0 0.0
2017-May-22 12:30S 28°51' E 032°13'0 0.0
2017-May-22 12:00S 28°51' E 032°13'0 0.0
2017-May-22 11:30S 28°51' E 032°13'0 0.1
2017-May-22 11:00S 28°51' E 032°13'0 0.0
2017-May-22 10:30S 28°51' E 032°13'0 0.0
2017-May-22 10:00S 28°51' E 032°13'0 0.1
2017-May-22 09:30S 28°51' E 032°13'0 0.1
2017-May-22 09:00S 28°51' E 032°13'0 0.0
2017-May-22 08:22S 28°51' E 032°13'0 0.0
2017-May-22 07:58S 28°51' E 032°13'0 0.0
2017-May-22 07:30S 28°51' E 032°13'0 0.0
2017-May-22 06:59S 28°51' E 032°13'0 0.0
2017-May-22 06:30S 28°51' E 032°13'0 0.0
2017-May-22 06:00S 28°51' E 032°13'0 0.0
2017-May-22 05:30S 28°51' E 032°13'0 0.0
2017-May-22 05:00S 28°51' E 032°13'0 0.0
2017-May-22 04:30S 28°51' E 032°13'0 0.0
2017-May-22 04:00S 28°51' E 032°13'0 0.0
2017-May-22 03:30S 28°51' E 032°13'0 0.0
2017-May-22 02:57S 28°51' E 032°13'0 0.0
2017-May-22 02:30S 28°51' E 032°13'0 0.0
2017-May-22 02:00S 28°51' E 032°13'0 0.0
2017-May-22 01:30S 28°51' E 032°13'0 0.0
2017-May-22 00:56S 28°51' E 032°13'0 0.0
2017-May-22 00:29S 28°51' E 032°13'0 0.0
2017-May-21 23:59S 28°51' E 032°13'0 0.0
2017-May-21 23:29S 28°51' E 032°13'0 0.0
2017-May-21 23:00S 28°51' E 032°13'0 0.0
2017-May-21 22:28S 28°51' E 032°13'0 0.0
2017-May-21 21:58S 28°51' E 032°13'0 0.0
2017-May-21 21:30S 28°51' E 032°13'0 0.1
2017-May-21 20:59S 28°51' E 032°13'0 0.0
2017-May-21 20:25S 28°51' E 032°13'0 0.0
2017-May-21 19:45S 28°51' E 032°13'0 0.0
2017-May-21 19:30S 28°51' E 032°13'0 0.0
2017-May-21 18:58S 28°51' E 032°13'0 0.1
2017-May-21 18:30S 28°51' E 032°13'0 0.0
2017-May-21 18:00S 28°51' E 032°13'0 0.1
2017-May-21 17:30S 28°51' E 032°13'0 0.1
2017-May-21 16:59S 28°51' E 032°13'0 0.2
2017-May-21 16:30S 28°51' E 032°13'0 0.1
2017-May-21 15:58S 28°51' E 032°13'0 0.1
2017-May-21 15:30S 28°51' E 032°13'0 0.0
2017-May-21 14:55S 28°51' E 032°13'0 0.0
2017-May-21 14:30S 28°51' E 032°13'0 0.0
2017-May-21 13:26S 28°51' E 032°13'0 0.0
2017-May-21 13:00S 28°51' E 032°13'0 0.0
2017-May-21 12:28S 28°51' E 032°13'0 0.0
2017-May-21 12:00S 28°51' E 032°13'0 0.0
2017-May-21 11:30S 28°51' E 032°13'0 0.0
2017-May-21 11:00S 28°51' E 032°13'0 0.0
2017-May-21 10:29S 28°51' E 032°13'0 0.0
2017-May-21 10:00S 28°51' E 032°13'0 0.0
2017-May-21 09:29S 28°51' E 032°13'0 0.0
2017-May-21 08:59S 28°51' E 032°13'0 0.0
2017-May-21 08:29S 28°51' E 032°13'0 0.0
2017-May-21 07:58S 28°51' E 032°13'0 0.0
2017-May-21 07:25S 28°51' E 032°13'0 0.0
2017-May-21 06:53S 28°51' E 032°13'0 0.0
2017-May-21 06:29S 28°51' E 032°13'0 0.0
2017-May-21 05:59S 28°51' E 032°13'0 0.0
2017-May-21 05:28S 28°51' E 032°13'0 0.0
2017-May-21 04:58S 28°51' E 032°13'0 0.0
2017-May-21 04:30S 28°51' E 032°13'0 0.0
2017-May-21 03:58S 28°51' E 032°13'0 0.0
2017-May-21 03:28S 28°51' E 032°13'0 0.1
2017-May-21 02:58S 28°51' E 032°13'0 0.0
2017-May-21 02:28S 28°51' E 032°13'0 0.0
2017-May-21 01:58S 28°51' E 032°13'0 0.0
2017-May-21 01:28S 28°51' E 032°13'0 0.1
2017-May-21 00:58S 28°51' E 032°13'0 0.1
2017-May-21 00:30S 28°51' E 032°13'0 0.0
2017-May-21 00:00S 28°51' E 032°13'0 0.0
2017-May-20 23:30S 28°51' E 032°13'0 0.0
2017-May-20 22:58S 28°51' E 032°13'0 0.0
2017-May-20 22:30S 28°51' E 032°13'0 0.0
2017-May-20 21:58S 28°51' E 032°13'0 0.0
2017-May-20 21:28S 28°51' E 032°13'0 0.1
2017-May-20 21:00S 28°51' E 032°13'0 0.1
2017-May-20 20:30S 28°51' E 032°13'0 0.1
2017-May-20 20:00S 28°51' E 032°13'0 0.0
2017-May-20 19:30S 28°51' E 032°13'0 0.0
2017-May-20 19:00S 28°51' E 032°13'0 0.2
2017-May-20 18:30S 28°51' E 032°13'0 0.2
2017-May-20 17:58S 28°51' E 032°13'0 0.0
2017-May-20 17:30S 28°51' E 032°13'0 0.1
2017-May-20 16:58S 28°51' E 032°13'0 0.0
2017-May-20 16:30S 28°51' E 032°13'0 0.0
2017-May-20 15:58S 28°51' E 032°13'0 0.0
2017-May-20 15:29S 28°51' E 032°13'0 0.0
2017-May-20 15:00S 28°51' E 032°13'0 0.0
2017-May-20 14:30S 28°51' E 032°13'0 0.0
2017-May-20 13:30S 28°51' E 032°13'0 0.0
2017-May-20 13:00S 28°51' E 032°13'0 0.0
2017-May-20 12:30S 28°51' E 032°13'0 0.0
2017-May-20 12:00S 28°51' E 032°13'0 0.0
2017-May-20 11:30S 28°51' E 032°13'0 0.0
2017-May-20 11:00S 28°51' E 032°13'0 0.0
2017-May-20 10:30S 28°51' E 032°13'0 0.1
2017-May-20 10:00S 28°51' E 032°13'0 0.0
2017-May-20 09:30S 28°51' E 032°13'0 0.1
2017-May-20 09:01S 28°51' E 032°13'0 0.1
2017-May-20 08:30S 28°51' E 032°13'0 0.0
2017-May-20 08:00S 28°51' E 032°13'0 0.1
2017-May-20 07:30S 28°51' E 032°13'0 0.1
2017-May-20 06:58S 28°51' E 032°13'0 0.1
2017-May-20 06:28S 28°51' E 032°13'0 0.0
2017-May-20 05:59S 28°51' E 032°13'0 0.0
2017-May-20 05:29S 28°51' E 032°13'0 0.0
2017-May-20 04:58S 28°51' E 032°13'0 0.0
2017-May-20 04:19S 28°51' E 032°13'0 0.0
2017-May-20 03:58S 28°51' E 032°13'0 0.1
2017-May-20 03:28S 28°51' E 032°13'0 0.0
2017-May-20 02:55S 28°51' E 032°13'0 0.0
2017-May-20 02:28S 28°51' E 032°13'0 0.0
2017-May-20 01:58S 28°51' E 032°13'0 0.0
2017-May-20 01:28S 28°51' E 032°13'0 0.0
2017-May-20 00:58S 28°51' E 032°13'0 0.0
2017-May-20 00:28S 28°51' E 032°13'0 0.0
2017-May-20 00:01S 28°51' E 032°13'0 0.0
2017-May-19 23:28S 28°51' E 032°13'0 0.2
2017-May-19 23:00S 28°51' E 032°13'1 2.8
2017-May-19 22:30S 28°52' E 032°11'  

Dump ship's entire track history